Time;durP1;ratioP1;P1;durP2;ratioP2;P2;SDS_P1;SDS_P2;PMS_P1;PMS_P2;Temp;Humidity;BMP_temperature;BMP_pressure;BME280_temperature;BME280_humidity;BME280_pressure;Samples;Min_cycle;Max_cycle;Signal;HPM_P1;HPM_P2
2022/07/13 00:01:30;;;;;;;3.50;3.20;;;;;;;;;;5057782;28;20420;-76
2022/07/13 00:03:58;;;;;;;3.67;3.10;;;;;;;;;;5058949;28;20526;-76
2022/07/13 00:06:24;;;;;;;4.53;3.30;;;;;;;;;;5057359;28;20427;-76
2022/07/13 00:08:51;;;;;;;3.53;3.22;;;;;;;;;;5057967;28;20416;-76
2022/07/13 00:11:17;;;;;;;3.55;3.25;;;;;;;;;;5057892;28;20427;-76
2022/07/13 00:13:43;;;;;;;4.70;3.25;;;;;;;;;;5058830;28;20424;-76
2022/07/13 00:16:09;;;;;;;3.43;3.13;;;;;;;;;;5057420;28;20435;-76
2022/07/13 00:18:36;;;;;;;5.15;3.53;;;;;;;;;;5057554;28;20936;-76
2022/07/13 00:21:04;;;;;;;4.03;3.38;;;;;;;;;;5058704;28;20794;-76
2022/07/13 00:23:30;;;;;;;3.58;3.00;;;;;;;;;;5057991;28;20513;-76
2022/07/13 00:25:56;;;;;;;3.40;3.10;;;;;;;;;;5057222;28;20436;-76
2022/07/13 00:28:22;;;;;;;5.38;3.20;;;;;;;;;;5057552;28;20505;-75
2022/07/13 00:30:49;;;;;;;4.03;3.00;;;;;;;;;;5072012;22;20986;-75
2022/07/13 00:33:15;;;;;;;6.10;3.30;;;;;;;;;;5057385;28;20421;-75
2022/07/13 00:35:41;;;;;;;4.18;3.30;;;;;;;;;;5058261;28;20436;-74
2022/07/13 00:38:09;;;;;;;3.20;2.80;;;;;;;;;;5055888;28;20787;-74
2022/07/13 00:40:35;;;;;;;2.90;2.70;;;;;;;;;;5057262;28;20423;-75
2022/07/13 00:43:02;;;;;;;4.85;3.25;;;;;;;;;;5057458;28;20424;-75
2022/07/13 00:45:28;;;;;;;4.20;3.50;;;;;;;;;;5058250;28;20424;-75
2022/07/13 00:47:54;;;;;;;5.28;3.47;;;;;;;;;;5057864;28;20428;-75
2022/07/13 00:50:21;;;;;;;3.73;3.30;;;;;;;;;;5057042;28;20431;-74
2022/07/13 00:52:47;;;;;;;6.30;3.38;;;;;;;;;;5057277;28;20428;-74
2022/07/13 00:55:16;;;;;;;3.30;3.00;;;;;;;;;;5055317;28;20435;-74
2022/07/13 00:57:43;;;;;;;3.80;3.40;;;;;;;;;;5056011;28;20791;-74
2022/07/13 01:00:10;;;;;;;3.80;3.40;;;;;;;;;;5058583;28;20453;-74
2022/07/13 01:02:36;;;;;;;4.18;3.40;;;;;;;;;;5057647;28;20454;-74
2022/07/13 01:05:03;;;;;;;3.80;3.40;;;;;;;;;;5057478;28;20779;-74
2022/07/13 01:07:30;;;;;;;3.40;3.10;;;;;;;;;;5057485;28;20440;-74
2022/07/13 01:09:57;;;;;;;3.50;3.20;;;;;;;;;;5055874;28;20431;-74
2022/07/13 01:12:24;;;;;;;3.92;3.53;;;;;;;;;;5055830;28;20407;-74
2022/07/13 01:14:51;;;;;;;3.90;3.60;;;;;;;;;;5059739;28;20416;-74
2022/07/13 01:17:17;;;;;;;6.63;3.67;;;;;;;;;;5059150;28;20413;-74
2022/07/13 01:19:44;;;;;;;4.07;3.35;;;;;;;;;;5059694;28;20413;-74
2022/07/13 01:22:12;;;;;;;4.10;3.50;;;;;;;;;;5057162;28;21081;-75
2022/07/13 01:24:40;;;;;;;4.28;3.60;;;;;;;;;;5058554;28;20434;-74
2022/07/13 01:27:06;;;;;;;4.07;3.70;;;;;;;;;;5056823;28;20899;-74
2022/07/13 01:29:33;;;;;;;3.60;3.30;;;;;;;;;;5058290;28;20786;-74
2022/07/13 01:32:00;;;;;;;4.00;3.47;;;;;;;;;;5055661;28;20443;-74
2022/07/13 01:34:26;;;;;;;3.50;3.20;;;;;;;;;;5055358;28;20442;-74
2022/07/13 01:36:53;;;;;;;3.33;3.03;;;;;;;;;;5057210;28;20429;-74
2022/07/13 01:39:20;;;;;;;3.63;3.10;;;;;;;;;;5056856;28;20439;-74
2022/07/13 01:41:48;;;;;;;3.43;3.10;;;;;;;;;;5054417;28;20475;-74
2022/07/13 01:44:14;;;;;;;3.60;3.30;;;;;;;;;;5057030;28;20429;-74
2022/07/13 01:46:40;;;;;;;3.50;3.08;;;;;;;;;;5055141;28;20437;-74
2022/07/13 01:49:07;;;;;;;4.00;3.60;;;;;;;;;;5056166;28;20899;-74
2022/07/13 01:51:33;;;;;;;4.70;3.60;;;;;;;;;;5056584;28;20436;-74
2022/07/13 01:53:59;;;;;;;3.90;3.42;;;;;;;;;;5054241;28;21323;-74
2022/07/13 01:56:26;;;;;;;4.18;3.50;;;;;;;;;;5055526;28;20438;-74
2022/07/13 01:58:54;;;;;;;3.70;3.40;;;;;;;;;;5055453;28;20429;-74
2022/07/13 02:01:20;;;;;;;4.18;3.30;;;;;;;;;;5055824;28;20430;-75
2022/07/13 02:03:46;;;;;;;4.10;3.50;;;;;;;;;;5054226;28;20781;-74
2022/07/13 02:06:13;;;;;;;3.63;3.33;;;;;;;;;;5055568;28;20711;-75
2022/07/13 02:08:39;;;;;;;3.77;3.40;;;;;;;;;;5057310;28;20434;-75
2022/07/13 02:11:05;;;;;;;3.50;2.80;;;;;;;;;;5055504;28;20430;-74
2022/07/13 02:13:32;;;;;;;3.80;3.50;;;;;;;;;;5057091;28;20424;-75
2022/07/13 02:15:59;;;;;;;4.30;3.28;;;;;;;;;;5057637;28;20425;-74
2022/07/13 02:18:26;;;;;;;3.50;3.20;;;;;;;;;;5056666;28;20806;-75
2022/07/13 02:20:52;;;;;;;4.28;3.88;;;;;;;;;;5056930;28;20428;-75
2022/07/13 02:23:18;;;;;;;4.75;3.60;;;;;;;;;;5056543;28;20436;-74
2022/07/13 02:25:44;;;;;;;4.35;3.58;;;;;;;;;;5059166;28;20443;-75
2022/07/13 02:28:11;;;;;;;3.50;3.20;;;;;;;;;;5061162;28;20428;-75
2022/07/13 02:30:37;;;;;;;4.70;3.58;;;;;;;;;;5062002;28;20431;-75
2022/07/13 02:33:06;;;;;;;3.80;3.50;;;;;;;;;;5059951;28;20500;-75
2022/07/13 02:35:32;;;;;;;3.30;3.00;;;;;;;;;;5059938;28;20435;-74
2022/07/13 02:37:59;;;;;;;4.47;3.10;;;;;;;;;;5060077;28;20429;-74
2022/07/13 02:40:25;;;;;;;3.00;2.80;;;;;;;;;;5060304;28;20447;-74
2022/07/13 02:42:51;;;;;;;3.50;2.85;;;;;;;;;;5059711;28;20421;-75
2022/07/13 02:45:18;;;;;;;3.65;3.10;;;;;;;;;;5060012;28;20466;-75
2022/07/13 02:47:44;;;;;;;3.50;3.20;;;;;;;;;;5057964;28;20803;-74
2022/07/13 02:50:12;;;;;;;3.00;2.70;;;;;;;;;;5058298;28;20433;-74
2022/07/13 02:52:39;;;;;;;3.97;3.30;;;;;;;;;;5058594;28;20422;-75
2022/07/13 02:55:05;;;;;;;4.85;3.17;;;;;;;;;;5058734;28;20959;-75
2022/07/13 02:57:31;;;;;;;5.47;2.95;;;;;;;;;;5058259;28;20405;-75
2022/07/13 02:59:58;;;;;;;4.37;2.80;;;;;;;;;;5058599;28;20427;-75
2022/07/13 03:02:24;;;;;;;4.28;3.20;;;;;;;;;;5057974;28;20765;-74
2022/07/13 03:04:51;;;;;;;5.25;2.90;;;;;;;;;;5059061;28;20427;-75
2022/07/13 03:07:18;;;;;;;4.38;3.10;;;;;;;;;;5058371;28;20437;-74
2022/07/13 03:09:45;;;;;;;3.60;3.30;;;;;;;;;;5058877;28;20438;-74
2022/07/13 03:12:11;;;;;;;5.78;3.65;;;;;;;;;;5059747;28;20431;-75
2022/07/13 03:14:37;;;;;;;3.42;2.90;;;;;;;;;;5059267;28;20431;-75
2022/07/13 03:17:04;;;;;;;5.05;2.92;;;;;;;;;;5059112;28;20799;-74
2022/07/13 03:19:30;;;;;;;3.97;3.20;;;;;;;;;;5060708;28;20436;-74
2022/07/13 03:21:56;;;;;;;3.35;3.05;;;;;;;;;;5058356;28;20425;-75
2022/07/13 03:24:24;;;;;;;4.20;3.00;;;;;;;;;;5057996;28;20742;-74
2022/07/13 03:26:50;;;;;;;4.20;3.10;;;;;;;;;;5059064;28;20443;-75
2022/07/13 03:29:17;;;;;;;3.80;3.15;;;;;;;;;;5060352;28;20431;-74
2022/07/13 03:31:43;;;;;;;5.55;3.38;;;;;;;;;;5060954;28;20899;-74
2022/07/13 03:34:09;;;;;;;3.50;3.20;;;;;;;;;;5059071;28;20429;-75
2022/07/13 03:36:36;;;;;;;5.18;4.20;;;;;;;;;;5058253;28;20442;-74
2022/07/13 03:39:02;;;;;;;6.17;3.60;;;;;;;;;;5057838;28;20431;-74
2022/07/13 03:41:30;;;;;;;4.35;3.92;;;;;;;;;;5059214;28;20432;-75
2022/07/13 03:43:56;;;;;;;4.50;2.95;;;;;;;;;;5058777;28;20428;-75
2022/07/13 03:46:22;;;;;;;3.50;3.20;;;;;;;;;;5058207;28;20437;-74
2022/07/13 03:48:48;;;;;;;3.70;3.40;;;;;;;;;;5059402;28;20432;-74
2022/07/13 03:51:15;;;;;;;6.00;3.70;;;;;;;;;;5058728;28;20929;-74
2022/07/13 03:53:41;;;;;;;5.63;3.30;;;;;;;;;;5058539;28;20940;-74
2022/07/13 03:56:08;;;;;;;5.93;3.08;;;;;;;;;;5056812;28;20444;-75
2022/07/13 03:58:35;;;;;;;4.37;3.97;;;;;;;;;;5059240;28;20430;-74
2022/07/13 04:01:02;;;;;;;4.00;3.70;;;;;;;;;;5057627;28;20428;-74
2022/07/13 04:03:28;;;;;;;4.30;3.90;;;;;;;;;;5057858;28;20419;-74
2022/07/13 04:05:54;;;;;;;6.00;4.20;;;;;;;;;;5057921;28;20435;-74
2022/07/13 04:08:21;;;;;;;4.97;4.30;;;;;;;;;;5057976;28;20430;-75
2022/07/13 04:10:47;;;;;;;4.70;4.20;;;;;;;;;;5058855;28;20437;-75
2022/07/13 04:13:14;;;;;;;4.57;4.17;;;;;;;;;;5057431;28;20784;-75
2022/07/13 04:15:41;;;;;;;4.80;3.95;;;;;;;;;;5057426;28;20433;-75
2022/07/13 04:18:08;;;;;;;6.32;4.70;;;;;;;;;;5058378;28;20425;-74
2022/07/13 04:20:34;;;;;;;4.60;4.20;;;;;;;;;;5057682;28;20430;-75
2022/07/13 04:23:00;;;;;;;5.00;4.50;;;;;;;;;;5057618;28;20421;-74
2022/07/13 04:25:26;;;;;;;3.90;3.60;;;;;;;;;;5055755;28;20431;-75
2022/07/13 04:27:53;;;;;;;4.40;3.42;;;;;;;;;;5059272;28;20415;-75
2022/07/13 04:30:22;;;;;;;4.40;4.00;;;;;;;;;;5057733;28;20440;-75
2022/07/13 04:32:49;;;;;;;6.38;5.78;;;;;;;;;;5055933;28;20448;-74
2022/07/13 04:35:16;;;;;;;5.47;4.97;;;;;;;;;;5055242;28;21037;-74
2022/07/13 04:37:42;;;;;;;5.15;4.65;;;;;;;;;;5055946;28;21003;-74
2022/07/13 04:40:09;;;;;;;5.22;4.82;;;;;;;;;;5056780;28;20436;-75
2022/07/13 04:42:35;;;;;;;6.10;5.50;;;;;;;;;;5059517;28;20412;-74
2022/07/13 04:45:02;;;;;;;5.13;4.63;;;;;;;;;;5059064;28;20436;-74
2022/07/13 04:47:28;;;;;;;5.75;4.95;;;;;;;;;;5058677;28;20419;-74
2022/07/13 04:49:56;;;;;;;7.40;5.60;;;;;;;;;;5055028;28;20888;-75
2022/07/13 04:52:22;;;;;;;5.10;4.60;;;;;;;;;;5054333;28;20416;-75
2022/07/13 04:54:48;;;;;;;5.50;4.50;;;;;;;;;;5056291;28;20511;-75
2022/07/13 04:57:15;;;;;;;5.68;5.28;;;;;;;;;;5056577;28;20435;-74
2022/07/13 04:59:41;;;;;;;5.93;5.30;;;;;;;;;;5059912;28;20669;-75
2022/07/13 05:02:08;;;;;;;5.27;4.87;;;;;;;;;;5053219;28;20427;-74
2022/07/13 05:04:34;;;;;;;4.60;4.20;;;;;;;;;;5056807;28;20508;-75
2022/07/13 05:07:02;;;;;;;5.15;3.92;;;;;;;;;;5054793;28;21030;-75
2022/07/13 05:09:28;;;;;;;4.60;4.20;;;;;;;;;;5055605;28;20425;-75
2022/07/13 05:11:55;;;;;;;4.80;4.40;;;;;;;;;;5056068;28;20806;-74
2022/07/13 05:14:21;;;;;;;5.40;4.90;;;;;;;;;;5055301;28;20424;-74
2022/07/13 05:16:48;;;;;;;5.50;5.00;;;;;;;;;;5058345;28;20785;-74
2022/07/13 05:19:14;;;;;;;5.43;4.93;;;;;;;;;;5056932;28;20521;-75
2022/07/13 05:21:40;;;;;;;5.88;5.38;;;;;;;;;;5055556;28;20423;-74
2022/07/13 05:24:08;;;;;;;6.00;5.50;;;;;;;;;;5056374;28;20427;-75
2022/07/13 05:26:36;;;;;;;5.90;5.40;;;;;;;;;;5054608;28;20431;-75
2022/07/13 05:29:04;;;;;;;6.13;5.60;;;;;;;;;;5058214;28;20498;-75
2022/07/13 05:31:30;;;;;;;6.20;5.60;;;;;;;;;;5055719;28;20425;-75
2022/07/13 05:33:57;;;;;;;5.93;5.43;;;;;;;;;;5058242;28;20419;-74
2022/07/13 05:36:23;;;;;;;5.55;5.00;;;;;;;;;;5054838;28;20428;-75
2022/07/13 05:38:49;;;;;;;6.43;5.83;;;;;;;;;;5055304;28;20471;-75
2022/07/13 05:41:17;;;;;;;6.55;5.22;;;;;;;;;;5056089;28;20444;-74
2022/07/13 05:43:43;;;;;;;5.68;5.15;;;;;;;;;;5057438;28;20412;-75
2022/07/13 05:46:10;;;;;;;6.70;5.95;;;;;;;;;;5057526;28;20431;-75
2022/07/13 05:48:36;;;;;;;6.32;5.72;;;;;;;;;;5055495;28;20425;-75
2022/07/13 05:51:02;;;;;;;6.13;5.63;;;;;;;;;;5058019;28;20420;-74
2022/07/13 05:53:29;;;;;;;5.93;5.43;;;;;;;;;;5056819;28;20408;-74
2022/07/13 05:55:55;;;;;;;6.68;5.50;;;;;;;;;;5057880;28;20442;-74
2022/07/13 05:58:23;;;;;;;6.00;5.30;;;;;;;;;;5055985;28;20415;-75
2022/07/13 06:00:49;;;;;;;5.50;4.65;;;;;;;;;;5054730;28;20433;-75
2022/07/13 06:03:15;;;;;;;6.13;5.15;;;;;;;;;;5055222;28;20761;-74
2022/07/13 06:05:42;;;;;;;7.22;5.47;;;;;;;;;;5057571;28;20435;-75
2022/07/13 06:08:08;;;;;;;6.35;5.72;;;;;;;;;;5056545;28;20417;-75
2022/07/13 06:10:34;;;;;;;5.65;5.13;;;;;;;;;;5053179;28;20799;-75
2022/07/13 06:13:01;;;;;;;6.40;5.80;;;;;;;;;;5056227;28;20421;-74
2022/07/13 06:15:28;;;;;;;7.43;6.63;;;;;;;;;;5058055;28;20431;-75
2022/07/13 06:17:55;;;;;;;6.30;5.25;;;;;;;;;;5050769;28;20419;-74
2022/07/13 06:20:21;;;;;;;5.78;5.28;;;;;;;;;;5051367;28;20437;-74
2022/07/13 06:23:09;;;;;;;6.00;5.40;;;;;;;;;;5055107;28;20428;-75
2022/07/13 06:25:34;;;;;;;6.65;6.00;;;;;;;;;;5053404;28;20460;-75
2022/07/13 06:28:00;;;;;;;6.75;6.13;;;;;;;;;;5056518;28;20415;-75
2022/07/13 06:30:27;;;;;;;5.72;5.10;;;;;;;;;;5055816;28;21302;-75
2022/07/13 06:32:54;;;;;;;7.05;5.93;;;;;;;;;;5086115;22;20427;-75
2022/07/13 06:35:20;;;;;;;6.40;5.90;;;;;;;;;;5074465;28;20418;-77
2022/07/13 06:37:47;;;;;;;7.20;6.03;;;;;;;;;;5074460;28;20412;-77
2022/07/13 06:40:13;;;;;;;7.95;5.82;;;;;;;;;;5076681;28;20921;-77
2022/07/13 06:42:40;;;;;;;7.95;5.30;;;;;;;;;;5068988;28;20452;-77
2022/07/13 06:45:07;;;;;;;6.70;6.10;;;;;;;;;;5073354;28;20425;-76
2022/07/13 06:47:33;;;;;;;6.25;5.65;;;;;;;;;;5073876;28;20410;-77
2022/07/13 06:50:01;;;;;;;5.30;4.80;;;;;;;;;;5074115;28;20446;-77
2022/07/13 06:52:27;;;;;;;5.30;4.80;;;;;;;;;;5073528;28;20409;-77
2022/07/13 06:54:53;;;;;;;5.40;4.90;;;;;;;;;;5076241;28;20429;-77
2022/07/13 06:57:19;;;;;;;5.00;4.60;;;;;;;;;;5074788;28;20425;-77
2022/07/13 06:59:46;;;;;;;8.32;5.00;;;;;;;;;;5067886;28;20818;-77
2022/07/13 07:02:12;;;;;;;5.57;5.13;;;;;;;;;;5073010;28;20422;-77
2022/07/13 07:04:38;;;;;;;7.57;5.20;;;;;;;;;;5074987;28;20452;-78
2022/07/13 07:07:06;;;;;;;6.63;6.00;;;;;;;;;;5068230;28;20443;-77
2022/07/13 07:09:32;;;;;;;6.78;5.30;;;;;;;;;;5075702;28;20413;-77
2022/07/13 07:11:59;;;;;;;6.00;5.20;;;;;;;;;;5075929;28;20423;-77
2022/07/13 07:14:25;;;;;;;6.10;5.50;;;;;;;;;;5073062;28;20427;-77
2022/07/13 07:16:51;;;;;;;5.35;4.95;;;;;;;;;;5074184;28;20425;-77
2022/07/13 07:19:18;;;;;;;7.10;5.60;;;;;;;;;;5078609;28;20415;-77
2022/07/13 07:21:44;;;;;;;6.97;5.82;;;;;;;;;;5074437;28;20429;-77
2022/07/13 07:24:12;;;;;;;6.30;5.60;;;;;;;;;;5078041;28;20424;-77
2022/07/13 07:26:38;;;;;;;6.80;5.80;;;;;;;;;;5078022;28;20425;-77
2022/07/13 07:29:04;;;;;;;7.40;5.40;;;;;;;;;;5078445;28;20437;-77
2022/07/13 07:31:30;;;;;;;6.00;5.20;;;;;;;;;;5078588;28;20428;-77
2022/07/13 07:33:57;;;;;;;5.77;5.03;;;;;;;;;;5079093;28;20414;-77
2022/07/13 07:36:23;;;;;;;6.33;5.07;;;;;;;;;;5075042;28;20427;-77
2022/07/13 07:38:49;;;;;;;5.28;4.88;;;;;;;;;;5075597;28;20421;-77
2022/07/13 07:41:17;;;;;;;5.00;4.60;;;;;;;;;;5077190;28;20431;-77
2022/07/13 07:43:43;;;;;;;6.00;4.75;;;;;;;;;;5071599;28;20639;-77
2022/07/13 07:46:10;;;;;;;6.35;4.88;;;;;;;;;;5078305;28;20427;-77
2022/07/13 07:48:36;;;;;;;5.13;4.65;;;;;;;;;;5080211;28;20414;-77
2022/07/13 07:51:04;;;;;;;5.60;5.00;;;;;;;;;;5075410;28;20446;-77
2022/07/13 07:53:30;;;;;;;5.53;5.03;;;;;;;;;;5075396;28;20428;-77
2022/07/13 07:55:57;;;;;;;5.93;4.95;;;;;;;;;;5077511;28;20457;-77
2022/07/13 07:58:24;;;;;;;5.60;4.68;;;;;;;;;;5077735;28;20445;-77
2022/07/13 08:00:51;;;;;;;6.90;5.05;;;;;;;;;;5073740;28;20427;-77
2022/07/13 08:03:17;;;;;;;5.35;4.88;;;;;;;;;;5078556;28;20927;-77
2022/07/13 08:05:48;;;;;;;5.07;4.57;;;;;;;;;;5075024;28;20435;-77
2022/07/13 08:08:14;;;;;;;5.47;4.67;;;;;;;;;;5077259;28;20510;-77
2022/07/13 08:10:40;;;;;;;4.50;4.10;;;;;;;;;;5074293;28;20422;-77
2022/07/13 08:13:07;;;;;;;4.68;4.18;;;;;;;;;;5063856;28;20428;-77
2022/07/13 08:15:35;;;;;;;5.05;4.10;;;;;;;;;;5076294;28;20905;-77
2022/07/13 08:18:01;;;;;;;4.60;4.20;;;;;;;;;;5076156;28;20515;-77
2022/07/13 08:20:28;;;;;;;5.57;4.07;;;;;;;;;;5076757;28;20545;-77
2022/07/13 08:22:54;;;;;;;5.30;4.43;;;;;;;;;;5074281;28;20431;-77
2022/07/13 08:25:20;;;;;;;4.65;4.25;;;;;;;;;;5077031;28;20444;-77
2022/07/13 08:27:47;;;;;;;6.32;4.30;;;;;;;;;;5073118;28;20780;-77
2022/07/13 08:30:13;;;;;;;5.37;4.87;;;;;;;;;;5073638;28;20466;-77
2022/07/13 08:32:41;;;;;;;5.10;4.60;;;;;;;;;;5074701;28;20906;-77
2022/07/13 08:40:35;;;;;;;6.07;5.28;;;;;;;;;;5075309;28;20428;-77
2022/07/13 08:43:01;;;;;;;5.20;4.70;;;;;;;;;;5075250;28;20420;-77
2022/07/13 08:45:28;;;;;;;7.90;5.68;;;;;;;;;;5075506;28;20441;-77
2022/07/13 08:47:56;;;;;;;6.95;6.25;;;;;;;;;;5074669;28;20423;-77
2022/07/13 08:50:23;;;;;;;7.10;6.00;;;;;;;;;;5075470;28;20445;-77
2022/07/13 08:52:50;;;;;;;7.22;6.50;;;;;;;;;;5075613;28;20423;-76
2022/07/13 08:55:17;;;;;;;8.20;6.40;;;;;;;;;;5076421;28;20428;-76
2022/07/13 08:57:43;;;;;;;7.50;6.70;;;;;;;;;;5074751;28;20400;-77
2022/07/13 09:00:11;;;;;;;8.85;7.10;;;;;;;;;;5075164;28;20427;-77
2022/07/13 09:02:38;;;;;;;8.10;7.00;;;;;;;;;;5074571;28;20416;-77
2022/07/13 09:05:07;;;;;;;7.10;6.30;;;;;;;;;;5075584;28;20500;-77
2022/07/13 09:07:34;;;;;;;8.23;7.13;;;;;;;;;;5074797;28;20813;-76
2022/07/13 09:10:01;;;;;;;8.60;6.82;;;;;;;;;;5076068;28;20487;-77
2022/07/13 09:12:28;;;;;;;8.47;7.60;;;;;;;;;;5074334;28;20923;-77
2022/07/13 09:14:56;;;;;;;7.88;7.07;;;;;;;;;;5075059;28;20426;-77
2022/07/13 09:17:29;;;;;;;10.00;8.02;;;;;;;;;;5075238;28;20928;-77
2022/07/13 09:19:57;;;;;;;8.70;6.70;;;;;;;;;;5070849;28;20429;-77
2022/07/13 09:22:25;;;;;;;9.45;7.90;;;;;;;;;;5065290;28;20411;-76
2022/07/13 09:24:53;;;;;;;10.52;7.95;;;;;;;;;;5070568;28;20423;-76
2022/07/13 09:27:20;;;;;;;9.15;8.27;;;;;;;;;;5077611;28;20414;-76
2022/07/13 09:29:46;;;;;;;10.60;7.47;;;;;;;;;;5073554;28;20423;-76
2022/07/13 09:32:13;;;;;;;12.00;8.63;;;;;;;;;;5068681;28;20483;-76
2022/07/13 09:34:46;;;;;;;9.97;8.97;;;;;;;;;;5053618;28;20809;-77
2022/07/13 09:37:14;;;;;;;11.90;9.18;;;;;;;;;;5051533;28;20467;-77
2022/07/13 09:39:55;;;;;;;9.95;8.95;;;;;;;;;;5051537;28;20932;-76
2022/07/13 09:42:27;;;;;;;9.00;8.10;;;;;;;;;;5052626;28;20426;-77
2022/07/13 09:47:41;;;;;;;10.00;9.10;;;;;;;;;;5052320;28;20411;-77
2022/07/13 09:50:08;;;;;;;9.65;8.65;;;;;;;;;;5047649;28;20490;-77
2022/07/13 09:52:34;;;;;;;8.73;7.90;;;;;;;;;;5053615;28;20419;-77
2022/07/13 09:55:04;;;;;;;8.88;8.07;;;;;;;;;;5053229;28;20926;-78
2022/07/13 09:57:34;;;;;;;9.10;8.20;;;;;;;;;;5052537;28;20430;-76
2022/07/13 10:00:01;;;;;;;8.32;7.53;;;;;;;;;;5042157;28;20429;-77
2022/07/13 10:02:28;;;;;;;10.00;9.10;;;;;;;;;;5035291;28;21174;-77
2022/07/13 10:04:57;;;;;;;10.93;8.80;;;;;;;;;;5037400;28;20825;-77
2022/07/13 10:07:24;;;;;;;9.20;8.30;;;;;;;;;;5047638;28;20415;-76
2022/07/13 10:09:50;;;;;;;9.32;8.23;;;;;;;;;;5052807;28;20438;-76
2022/07/13 10:12:16;;;;;;;9.40;8.50;;;;;;;;;;5051656;28;20440;-77
2022/07/13 10:14:45;;;;;;;9.45;8.45;;;;;;;;;;5054604;28;20425;-77
2022/07/13 10:17:12;;;;;;;12.18;9.45;;;;;;;;;;5049886;28;20437;-77
2022/07/13 10:19:41;;;;;;;9.65;7.20;;;;;;;;;;5055418;28;20432;-77
2022/07/13 10:22:09;;;;;;;8.55;7.75;;;;;;;;;;5035645;28;20435;-76
2022/07/13 10:24:36;;;;;;;8.40;7.60;;;;;;;;;;5021035;28;20433;-77
2022/07/13 10:27:22;;;;;;;8.35;7.55;;;;;;;;;;5015146;28;20443;-76
2022/07/13 10:29:50;;;;;;;8.82;6.70;;;;;;;;;;5026004;28;20442;-77
2022/07/13 10:32:17;;;;;;;8.80;6.80;;;;;;;;;;5021883;28;20448;-77
2022/07/13 10:34:51;;;;;;;8.40;7.60;;;;;;;;;;5027092;28;20457;-77
2022/07/13 10:37:17;;;;;;;8.93;8.02;;;;;;;;;;5046221;28;20442;-76
2022/07/13 10:39:58;;;;;;;8.00;7.20;;;;;;;;;;5052500;28;20407;-76
2022/07/13 10:42:25;;;;;;;7.70;7.00;;;;;;;;;;5016567;28;20417;-77
2022/07/13 10:44:53;;;;;;;7.90;7.10;;;;;;;;;;5019329;28;20456;-77
2022/07/13 10:47:20;;;;;;;7.90;7.20;;;;;;;;;;5020398;28;20932;-76
2022/07/13 10:49:47;;;;;;;8.90;7.22;;;;;;;;;;5033488;28;20433;-76
2022/07/13 10:52:32;;;;;;;7.13;6.43;;;;;;;;;;5034022;28;20436;-77
2022/07/13 10:55:17;;;;;;;6.70;6.10;;;;;;;;;;5030364;28;20432;-77
2022/07/13 10:57:43;;;;;;;7.10;6.50;;;;;;;;;;5021212;28;20785;-76
2022/07/13 11:00:18;;;;;;;8.15;7.35;;;;;;;;;;5024512;28;20436;-77
2022/07/13 11:02:47;;;;;;;7.93;6.43;;;;;;;;;;5022862;28;20434;-77
2022/07/13 11:05:14;;;;;;;6.80;6.10;;;;;;;;;;5029098;28;20441;-77
2022/07/13 11:07:41;;;;;;;6.80;6.10;;;;;;;;;;5059244;28;20424;-76
2022/07/13 11:10:26;;;;;;;6.10;5.50;;;;;;;;;;5059087;28;20411;-76
2022/07/13 11:13:01;;;;;;;8.00;7.30;;;;;;;;;;5060302;28;20864;-77
2022/07/13 11:15:42;;;;;;;7.27;6.33;;;;;;;;;;5019574;28;20988;-76
2022/07/13 11:18:24;;;;;;;7.13;5.57;;;;;;;;;;5028504;28;20528;-76
2022/07/13 11:20:55;;;;;;;7.03;5.70;;;;;;;;;;5024370;28;20449;-77
2022/07/13 11:26:08;;;;;;;6.87;5.50;;;;;;;;;;5019963;28;20452;-77
2022/07/13 11:28:37;;;;;;;6.00;5.50;;;;;;;;;;5023996;28;20439;-77
2022/07/13 11:31:05;;;;;;;6.82;5.68;;;;;;;;;;5027698;28;20433;-77
2022/07/13 11:33:31;;;;;;;7.05;6.35;;;;;;;;;;5026189;28;20423;-77
2022/07/13 11:35:59;;;;;;;6.07;5.47;;;;;;;;;;5035636;28;20911;-76
2022/07/13 11:38:26;;;;;;;6.10;5.50;;;;;;;;;;5054396;28;20812;-77
2022/07/13 11:40:52;;;;;;;5.80;5.30;;;;;;;;;;5050201;28;20439;-77
2022/07/13 11:43:18;;;;;;;5.50;5.00;;;;;;;;;;5019104;28;20429;-77
2022/07/13 11:45:45;;;;;;;5.38;4.85;;;;;;;;;;5021108;28;20433;-76
2022/07/13 11:48:13;;;;;;;6.15;5.53;;;;;;;;;;5028004;28;20425;-77
2022/07/13 11:50:43;;;;;;;4.68;4.28;;;;;;;;;;5020932;28;20444;-76
2022/07/13 11:53:10;;;;;;;4.90;4.22;;;;;;;;;;5025453;28;20427;-76
2022/07/13 11:55:37;;;;;;;5.73;4.80;;;;;;;;;;5030456;28;20498;-76
2022/07/13 11:58:04;;;;;;;4.95;4.50;;;;;;;;;;5024408;28;20907;-76
2022/07/13 12:00:31;;;;;;;4.38;3.97;;;;;;;;;;5037723;28;20433;-76
2022/07/13 12:02:58;;;;;;;5.05;4.40;;;;;;;;;;5020967;28;20986;-76
2022/07/13 12:05:26;;;;;;;5.30;4.25;;;;;;;;;;5023814;28;20433;-76
2022/07/13 12:08:03;;;;;;;4.43;4.03;;;;;;;;;;5055134;28;20465;-77
2022/07/13 12:10:30;;;;;;;5.38;4.00;;;;;;;;;;5056733;28;20428;-77
2022/07/13 12:12:57;;;;;;;4.85;4.32;;;;;;;;;;5034211;28;20435;-76
2022/07/13 12:15:23;;;;;;;4.53;4.05;;;;;;;;;;5018434;28;21047;-77
2022/07/13 12:17:50;;;;;;;4.00;3.60;;;;;;;;;;5023325;28;20422;-76
2022/07/13 12:20:17;;;;;;;4.60;3.80;;;;;;;;;;5021473;28;20904;-76
2022/07/13 12:22:51;;;;;;;4.38;3.97;;;;;;;;;;5021119;28;20430;-77
2022/07/13 12:25:24;;;;;;;5.28;4.25;;;;;;;;;;5027994;28;20441;-76
2022/07/13 12:27:51;;;;;;;4.85;4.45;;;;;;;;;;5022572;28;20421;-77
2022/07/13 12:30:18;;;;;;;4.90;4.40;;;;;;;;;;5041296;28;20923;-77
2022/07/13 12:33:00;;;;;;;4.50;4.10;;;;;;;;;;5043027;22;20416;-74
2022/07/13 12:35:27;;;;;;;5.75;4.70;;;;;;;;;;5034718;28;21002;-74
2022/07/13 12:37:55;;;;;;;5.40;5.00;;;;;;;;;;5044682;28;20430;-75
2022/07/13 12:40:41;;;;;;;7.53;6.60;;;;;;;;;;5055928;28;20438;-75
2022/07/13 12:43:15;;;;;;;11.15;9.80;;;;;;;;;;5032184;28;20433;-75
2022/07/13 12:45:43;;;;;;;9.93;8.93;;;;;;;;;;5024716;28;20435;-74
2022/07/13 12:48:13;;;;;;;12.33;10.30;;;;;;;;;;5028285;28;20456;-75
2022/07/13 12:50:39;;;;;;;12.07;9.40;;;;;;;;;;5027651;28;20433;-75
2022/07/13 12:53:07;;;;;;;9.20;8.40;;;;;;;;;;5025052;28;20431;-74
2022/07/13 12:55:48;;;;;;;11.15;7.78;;;;;;;;;;5024234;28;20448;-75
2022/07/13 12:58:15;;;;;;;7.65;7.05;;;;;;;;;;5026051;28;20932;-75
2022/07/13 13:00:42;;;;;;;8.38;6.80;;;;;;;;;;5020849;28;20528;-74
2022/07/13 13:03:08;;;;;;;7.83;6.10;;;;;;;;;;5021132;28;21605;-75
2022/07/13 13:05:36;;;;;;;6.70;6.10;;;;;;;;;;5026673;28;20427;-74
2022/07/13 13:08:02;;;;;;;6.28;5.28;;;;;;;;;;5034760;28;20429;-75
2022/07/13 13:10:31;;;;;;;5.70;4.90;;;;;;;;;;5039117;28;20419;-74
2022/07/13 13:12:57;;;;;;;6.40;4.80;;;;;;;;;;5029717;28;20472;-74
2022/07/13 13:15:23;;;;;;;5.07;4.57;;;;;;;;;;5021419;28;20436;-75
2022/07/13 13:17:50;;;;;;;5.57;4.72;;;;;;;;;;5021130;28;20440;-74
2022/07/13 13:20:16;;;;;;;7.05;4.57;;;;;;;;;;5022510;28;21140;-75
2022/07/13 13:22:43;;;;;;;5.07;4.68;;;;;;;;;;5022507;28;21168;-75
2022/07/13 13:25:09;;;;;;;4.93;3.90;;;;;;;;;;5025210;28;20429;-74
2022/07/13 13:27:37;;;;;;;5.40;3.78;;;;;;;;;;5024451;28;20429;-74
2022/07/13 13:32:48;;;;;;;6.97;3.90;;;;;;;;;;5022913;28;20955;-75
2022/07/13 13:35:14;;;;;;;3.40;3.10;;;;;;;;;;5024974;28;20510;-75
2022/07/13 13:37:40;;;;;;;4.25;3.28;;;;;;;;;;5026886;28;20429;-75
2022/07/13 13:40:07;;;;;;;4.93;4.10;;;;;;;;;;5035817;28;20778;-74
2022/07/13 13:42:34;;;;;;;5.27;3.90;;;;;;;;;;5034403;28;20794;-74
2022/07/13 13:45:01;;;;;;;6.03;4.20;;;;;;;;;;5020589;28;20456;-74
2022/07/13 13:47:28;;;;;;;4.68;3.83;;;;;;;;;;5020350;28;21894;-74
2022/07/13 13:49:54;;;;;;;7.53;4.70;;;;;;;;;;5023503;28;20440;-74
2022/07/13 13:52:20;;;;;;;7.20;5.20;;;;;;;;;;5022714;28;20440;-75
2022/07/13 13:54:47;;;;;;;6.35;5.38;;;;;;;;;;5024002;28;21015;-74
2022/07/13 13:57:13;;;;;;;6.15;5.32;;;;;;;;;;5026461;28;20441;-74
2022/07/13 13:59:39;;;;;;;8.50;5.00;;;;;;;;;;5032379;28;20917;-75
2022/07/13 14:02:07;;;;;;;6.30;5.00;;;;;;;;;;5027956;28;20440;-74
2022/07/13 14:04:33;;;;;;;7.80;5.38;;;;;;;;;;5033582;28;20421;-74
2022/07/13 14:06:59;;;;;;;7.30;5.25;;;;;;;;;;5032521;28;20426;-74
2022/07/13 14:09:26;;;;;;;7.00;5.30;;;;;;;;;;5036803;28;20422;-74
2022/07/13 14:11:52;;;;;;;7.47;6.30;;;;;;;;;;5038597;28;20414;-74
2022/07/13 14:14:18;;;;;;;7.83;7.00;;;;;;;;;;5036266;28;20436;-74
2022/07/13 14:16:45;;;;;;;7.13;6.43;;;;;;;;;;5032646;28;20872;-74
2022/07/13 14:19:13;;;;;;;6.93;5.70;;;;;;;;;;5030350;28;21027;-75
2022/07/13 14:21:39;;;;;;;6.78;5.50;;;;;;;;;;5030304;28;20431;-74
2022/07/13 14:24:06;;;;;;;7.20;5.20;;;;;;;;;;5032667;28;20863;-74
2022/07/13 14:26:32;;;;;;;7.00;5.20;;;;;;;;;;5030802;28;20437;-74
2022/07/13 14:28:58;;;;;;;5.85;5.03;;;;;;;;;;5031959;28;20425;-75
2022/07/13 14:31:25;;;;;;;4.10;3.70;;;;;;;;;;5030510;28;20774;-74
2022/07/13 14:33:51;;;;;;;3.80;3.50;;;;;;;;;;5033358;28;20433;-74
2022/07/13 14:36:24;;;;;;;5.47;3.65;;;;;;;;;;5030616;28;20929;-74
2022/07/13 14:38:50;;;;;;;5.75;3.60;;;;;;;;;;5034282;28;20921;-75
2022/07/13 14:41:17;;;;;;;5.70;3.78;;;;;;;;;;5035940;28;20423;-75
2022/07/13 14:43:43;;;;;;;6.17;3.73;;;;;;;;;;5032867;28;20487;-75
2022/07/13 14:46:09;;;;;;;5.25;3.60;;;;;;;;;;5028463;28;20433;-75
2022/07/13 14:48:35;;;;;;;6.35;3.80;;;;;;;;;;5030736;28;20424;-74
2022/07/13 14:51:02;;;;;;;7.90;3.92;;;;;;;;;;5030077;28;23465;-75
2022/07/13 14:53:29;;;;;;;6.60;4.30;;;;;;;;;;5030097;28;21151;-75
2022/07/13 14:55:56;;;;;;;5.60;4.30;;;;;;;;;;5028788;28;21032;-75
2022/07/13 14:58:22;;;;;;;5.68;3.90;;;;;;;;;;5029607;28;20418;-74